sensor_id;sensor_type;location;lat;lon;timestamp;P1;durP1;ratioP1;P2;durP2;ratioP2
44222;SDS011;29895;48.804;9.386;2023-09-19T00:01:41;3.05;;;1.10;;
44222;SDS011;29895;48.804;9.386;2023-09-19T00:04:12;2.70;;;0.95;;
44222;SDS011;29895;48.804;9.386;2023-09-19T00:06:38;2.88;;;1.30;;
44222;SDS011;29895;48.804;9.386;2023-09-19T00:09:04;3.75;;;0.95;;
44222;SDS011;29895;48.804;9.386;2023-09-19T00:11:30;2.38;;;1.00;;
44222;SDS011;29895;48.804;9.386;2023-09-19T00:13:56;2.60;;;0.85;;
44222;SDS011;29895;48.804;9.386;2023-09-19T00:16:25;2.67;;;1.13;;
44222;SDS011;29895;48.804;9.386;2023-09-19T00:18:52;3.28;;;1.00;;
44222;SDS011;29895;48.804;9.386;2023-09-19T00:21:17;3.17;;;1.20;;
44222;SDS011;29895;48.804;9.386;2023-09-19T00:23:44;3.28;;;0.82;;
44222;SDS011;29895;48.804;9.386;2023-09-19T00:26:10;2.95;;;1.17;;
44222;SDS011;29895;48.804;9.386;2023-09-19T00:28:35;3.28;;;1.15;;
44222;SDS011;29895;48.804;9.386;2023-09-19T00:31:01;4.90;;;1.33;;
44222;SDS011;29895;48.804;9.386;2023-09-19T00:33:27;2.47;;;1.30;;
44222;SDS011;29895;48.804;9.386;2023-09-19T00:35:54;4.32;;;1.15;;
44222;SDS011;29895;48.804;9.386;2023-09-19T00:38:22;2.38;;;1.08;;
44222;SDS011;29895;48.804;9.386;2023-09-19T00:40:52;2.80;;;0.80;;
44222;SDS011;29895;48.804;9.386;2023-09-19T00:43:19;2.58;;;1.00;;
44222;SDS011;29895;48.804;9.386;2023-09-19T00:45:46;2.70;;;0.90;;
44222;SDS011;29895;48.804;9.386;2023-09-19T00:48:14;3.78;;;1.10;;
44222;SDS011;29895;48.804;9.386;2023-09-19T00:50:42;3.50;;;1.10;;
44222;SDS011;29895;48.804;9.386;2023-09-19T00:53:09;2.33;;;1.02;;
44222;SDS011;29895;48.804;9.386;2023-09-19T00:55:38;2.97;;;1.00;;
44222;SDS011;29895;48.804;9.386;2023-09-19T00:58:04;2.85;;;0.98;;
44222;SDS011;29895;48.804;9.386;2023-09-19T01:00:33;2.05;;;0.88;;
44222;SDS011;29895;48.804;9.386;2023-09-19T01:02:59;1.52;;;0.80;;
44222;SDS011;29895;48.804;9.386;2023-09-19T01:05:28;2.42;;;1.02;;
44222;SDS011;29895;48.804;9.386;2023-09-19T01:07:57;2.72;;;0.98;;
44222;SDS011;29895;48.804;9.386;2023-09-19T01:10:23;2.30;;;1.00;;
44222;SDS011;29895;48.804;9.386;2023-09-19T01:16:08;1.52;;;0.80;;
44222;SDS011;29895;48.804;9.386;2023-09-19T01:24:40;3.13;;;0.82;;
44222;SDS011;29895;48.804;9.386;2023-09-19T01:30:22;2.85;;;0.98;;
44222;SDS011;29895;48.804;9.386;2023-09-19T01:32:52;1.23;;;1.00;;
44222;SDS011;29895;48.804;9.386;2023-09-19T01:35:19;3.83;;;1.02;;
44222;SDS011;29895;48.804;9.386;2023-09-19T01:37:44;2.67;;;0.85;;
44222;SDS011;29895;48.804;9.386;2023-09-19T01:40:11;1.58;;;0.80;;
44222;SDS011;29895;48.804;9.386;2023-09-19T01:42:44;2.65;;;1.10;;
44222;SDS011;29895;48.804;9.386;2023-09-19T01:47:50;3.55;;;0.80;;
44222;SDS011;29895;48.804;9.386;2023-09-19T01:50:38;2.10;;;0.70;;
44222;SDS011;29895;48.804;9.386;2023-09-19T01:55:53;4.05;;;1.13;;
44222;SDS011;29895;48.804;9.386;2023-09-19T01:58:21;2.85;;;1.15;;
44222;SDS011;29895;48.804;9.386;2023-09-19T02:01:21;3.10;;;1.20;;
44222;SDS011;29895;48.804;9.386;2023-09-19T02:03:49;4.40;;;1.00;;
44222;SDS011;29895;48.804;9.386;2023-09-19T02:06:16;2.03;;;0.80;;
44222;SDS011;29895;48.804;9.386;2023-09-19T02:08:42;3.13;;;1.23;;
44222;SDS011;29895;48.804;9.386;2023-09-19T02:11:08;2.10;;;0.73;;
44222;SDS011;29895;48.804;9.386;2023-09-19T02:13:34;1.08;;;0.68;;
44222;SDS011;29895;48.804;9.386;2023-09-19T02:15:59;2.45;;;0.75;;
44222;SDS011;29895;48.804;9.386;2023-09-19T02:18:25;2.13;;;0.90;;
44222;SDS011;29895;48.804;9.386;2023-09-19T02:20:53;2.20;;;1.02;;
44222;SDS011;29895;48.804;9.386;2023-09-19T02:23:19;2.17;;;0.70;;
44222;SDS011;29895;48.804;9.386;2023-09-19T02:25:54;1.45;;;0.70;;
44222;SDS011;29895;48.804;9.386;2023-09-19T02:28:20;2.83;;;0.60;;
44222;SDS011;29895;48.804;9.386;2023-09-19T02:30:48;1.98;;;1.10;;
44222;SDS011;29895;48.804;9.386;2023-09-19T02:33:14;2.53;;;1.05;;
44222;SDS011;29895;48.804;9.386;2023-09-19T02:35:40;2.75;;;0.98;;
44222;SDS011;29895;48.804;9.386;2023-09-19T02:38:05;3.38;;;0.93;;
44222;SDS011;29895;48.804;9.386;2023-09-19T02:40:32;3.08;;;0.93;;
44222;SDS011;29895;48.804;9.386;2023-09-19T02:43:01;1.60;;;1.10;;
44222;SDS011;29895;48.804;9.386;2023-09-19T02:45:27;1.10;;;0.60;;
44222;SDS011;29895;48.804;9.386;2023-09-19T02:47:53;2.42;;;0.90;;
44222;SDS011;29895;48.804;9.386;2023-09-19T02:50:19;2.88;;;0.85;;
44222;SDS011;29895;48.804;9.386;2023-09-19T02:52:46;1.63;;;0.85;;
44222;SDS011;29895;48.804;9.386;2023-09-19T02:55:13;2.75;;;1.00;;
44222;SDS011;29895;48.804;9.386;2023-09-19T02:57:51;3.73;;;0.97;;
44222;SDS011;29895;48.804;9.386;2023-09-19T03:00:19;2.72;;;0.95;;
44222;SDS011;29895;48.804;9.386;2023-09-19T03:02:55;2.35;;;0.80;;
44222;SDS011;29895;48.804;9.386;2023-09-19T03:05:21;2.47;;;1.02;;
44222;SDS011;29895;48.804;9.386;2023-09-19T03:07:51;5.22;;;0.95;;
44222;SDS011;29895;48.804;9.386;2023-09-19T03:10:20;1.77;;;1.00;;
44222;SDS011;29895;48.804;9.386;2023-09-19T03:12:46;5.07;;;1.40;;
44222;SDS011;29895;48.804;9.386;2023-09-19T03:15:13;2.10;;;0.80;;
44222;SDS011;29895;48.804;9.386;2023-09-19T03:17:42;2.20;;;1.00;;
44222;SDS011;29895;48.804;9.386;2023-09-19T03:20:17;1.92;;;0.98;;
44222;SDS011;29895;48.804;9.386;2023-09-19T03:22:43;1.85;;;1.15;;
44222;SDS011;29895;48.804;9.386;2023-09-19T03:25:11;3.45;;;0.90;;
44222;SDS011;29895;48.804;9.386;2023-09-19T03:27:38;1.75;;;1.00;;
44222;SDS011;29895;48.804;9.386;2023-09-19T03:30:04;2.08;;;0.93;;
44222;SDS011;29895;48.804;9.386;2023-09-19T03:32:34;3.97;;;1.10;;
44222;SDS011;29895;48.804;9.386;2023-09-19T03:35:08;3.28;;;1.30;;
44222;SDS011;29895;48.804;9.386;2023-09-19T03:37:34;3.47;;;1.00;;
44222;SDS011;29895;48.804;9.386;2023-09-19T03:40:00;3.25;;;0.77;;
44222;SDS011;29895;48.804;9.386;2023-09-19T03:42:29;3.15;;;1.20;;
44222;SDS011;29895;48.804;9.386;2023-09-19T03:44:56;3.08;;;1.10;;
44222;SDS011;29895;48.804;9.386;2023-09-19T03:47:22;3.83;;;1.20;;
44222;SDS011;29895;48.804;9.386;2023-09-19T03:49:47;2.40;;;1.00;;
44222;SDS011;29895;48.804;9.386;2023-09-19T03:52:13;3.25;;;1.27;;
44222;SDS011;29895;48.804;9.386;2023-09-19T03:54:40;5.13;;;1.23;;
44222;SDS011;29895;48.804;9.386;2023-09-19T03:57:06;3.03;;;1.00;;
44222;SDS011;29895;48.804;9.386;2023-09-19T03:59:32;3.28;;;1.30;;
44222;SDS011;29895;48.804;9.386;2023-09-19T04:01:57;1.92;;;1.10;;
44222;SDS011;29895;48.804;9.386;2023-09-19T04:04:24;2.58;;;1.23;;
44222;SDS011;29895;48.804;9.386;2023-09-19T04:06:52;2.63;;;1.15;;
44222;SDS011;29895;48.804;9.386;2023-09-19T04:09:18;2.28;;;1.10;;
44222;SDS011;29895;48.804;9.386;2023-09-19T04:11:44;6.55;;;1.35;;
44222;SDS011;29895;48.804;9.386;2023-09-19T04:14:09;3.60;;;0.98;;
44222;SDS011;29895;48.804;9.386;2023-09-19T04:16:35;2.65;;;1.30;;
44222;SDS011;29895;48.804;9.386;2023-09-19T04:19:01;4.97;;;1.02;;
44222;SDS011;29895;48.804;9.386;2023-09-19T04:21:27;3.05;;;1.60;;
44222;SDS011;29895;48.804;9.386;2023-09-19T04:23:54;3.92;;;1.20;;
44222;SDS011;29895;48.804;9.386;2023-09-19T04:26:20;1.90;;;1.00;;
44222;SDS011;29895;48.804;9.386;2023-09-19T04:28:46;3.30;;;1.10;;
44222;SDS011;29895;48.804;9.386;2023-09-19T04:31:12;3.75;;;1.08;;
44222;SDS011;29895;48.804;9.386;2023-09-19T04:33:39;4.40;;;1.20;;
44222;SDS011;29895;48.804;9.386;2023-09-19T04:36:04;4.38;;;1.45;;
44222;SDS011;29895;48.804;9.386;2023-09-19T04:38:32;5.20;;;2.60;;
44222;SDS011;29895;48.804;9.386;2023-09-19T04:40:58;5.28;;;2.00;;
44222;SDS011;29895;48.804;9.386;2023-09-19T04:43:24;5.53;;;1.60;;
44222;SDS011;29895;48.804;9.386;2023-09-19T04:45:50;3.28;;;1.58;;
44222;SDS011;29895;48.804;9.386;2023-09-19T04:48:19;1.73;;;1.15;;
44222;SDS011;29895;48.804;9.386;2023-09-19T04:50:45;3.70;;;1.77;;
44222;SDS011;29895;48.804;9.386;2023-09-19T04:53:10;7.25;;;1.58;;
44222;SDS011;29895;48.804;9.386;2023-09-19T04:55:36;3.70;;;1.52;;
44222;SDS011;29895;48.804;9.386;2023-09-19T04:58:01;3.03;;;1.60;;
44222;SDS011;29895;48.804;9.386;2023-09-19T05:00:27;3.10;;;1.42;;
44222;SDS011;29895;48.804;9.386;2023-09-19T05:02:56;2.47;;;1.40;;
44222;SDS011;29895;48.804;9.386;2023-09-19T05:05:22;4.97;;;1.20;;
44222;SDS011;29895;48.804;9.386;2023-09-19T05:07:50;2.90;;;1.20;;
44222;SDS011;29895;48.804;9.386;2023-09-19T05:10:16;4.40;;;1.35;;
44222;SDS011;29895;48.804;9.386;2023-09-19T05:12:45;3.30;;;1.70;;
44222;SDS011;29895;48.804;9.386;2023-09-19T05:15:13;5.10;;;1.85;;
44222;SDS011;29895;48.804;9.386;2023-09-19T05:17:42;4.90;;;1.20;;
44222;SDS011;29895;48.804;9.386;2023-09-19T05:20:12;5.50;;;1.90;;
44222;SDS011;29895;48.804;9.386;2023-09-19T05:22:41;5.60;;;1.77;;
44222;SDS011;29895;48.804;9.386;2023-09-19T05:25:08;4.00;;;1.55;;
44222;SDS011;29895;48.804;9.386;2023-09-19T05:27:35;4.75;;;1.58;;
44222;SDS011;29895;48.804;9.386;2023-09-19T05:30:00;2.47;;;1.80;;
44222;SDS011;29895;48.804;9.386;2023-09-19T05:32:26;7.43;;;2.42;;
44222;SDS011;29895;48.804;9.386;2023-09-19T05:34:52;3.28;;;1.77;;
44222;SDS011;29895;48.804;9.386;2023-09-19T05:37:21;4.72;;;2.45;;
44222;SDS011;29895;48.804;9.386;2023-09-19T05:39:48;4.53;;;2.15;;
44222;SDS011;29895;48.804;9.386;2023-09-19T05:42:14;3.28;;;1.73;;
44222;SDS011;29895;48.804;9.386;2023-09-19T05:44:39;4.40;;;1.95;;
44222;SDS011;29895;48.804;9.386;2023-09-19T05:47:05;4.53;;;2.10;;
44222;SDS011;29895;48.804;9.386;2023-09-19T05:49:33;6.13;;;2.17;;
44222;SDS011;29895;48.804;9.386;2023-09-19T05:52:05;5.28;;;2.35;;
44222;SDS011;29895;48.804;9.386;2023-09-19T05:54:31;4.32;;;2.20;;
44222;SDS011;29895;48.804;9.386;2023-09-19T05:56:59;9.30;;;2.83;;
44222;SDS011;29895;48.804;9.386;2023-09-19T05:59:25;5.20;;;2.40;;
44222;SDS011;29895;48.804;9.386;2023-09-19T06:01:51;5.75;;;2.30;;
44222;SDS011;29895;48.804;9.386;2023-09-19T06:04:17;8.07;;;2.50;;
44222;SDS011;29895;48.804;9.386;2023-09-19T06:06:44;5.22;;;2.50;;
44222;SDS011;29895;48.804;9.386;2023-09-19T06:09:10;6.45;;;2.17;;
44222;SDS011;29895;48.804;9.386;2023-09-19T06:11:35;6.50;;;2.38;;
44222;SDS011;29895;48.804;9.386;2023-09-19T06:14:02;8.13;;;2.45;;
44222;SDS011;29895;48.804;9.386;2023-09-19T06:16:28;8.32;;;2.67;;
44222;SDS011;29895;48.804;9.386;2023-09-19T06:18:55;7.13;;;3.20;;
44222;SDS011;29895;48.804;9.386;2023-09-19T06:21:23;7.15;;;2.72;;
44222;SDS011;29895;48.804;9.386;2023-09-19T06:23:49;7.00;;;3.30;;
44222;SDS011;29895;48.804;9.386;2023-09-19T06:26:14;6.03;;;2.72;;
44222;SDS011;29895;48.804;9.386;2023-09-19T06:28:40;4.65;;;2.63;;
44222;SDS011;29895;48.804;9.386;2023-09-19T06:31:07;6.70;;;2.90;;
44222;SDS011;29895;48.804;9.386;2023-09-19T06:33:35;8.10;;;2.85;;
44222;SDS011;29895;48.804;9.386;2023-09-19T06:36:04;8.88;;;2.97;;
44222;SDS011;29895;48.804;9.386;2023-09-19T06:38:30;8.10;;;3.20;;
44222;SDS011;29895;48.804;9.386;2023-09-19T06:40:59;5.57;;;2.78;;
44222;SDS011;29895;48.804;9.386;2023-09-19T06:43:26;4.00;;;2.70;;
44222;SDS011;29895;48.804;9.386;2023-09-19T06:45:52;9.15;;;3.72;;
44222;SDS011;29895;48.804;9.386;2023-09-19T06:48:19;9.18;;;3.38;;
44222;SDS011;29895;48.804;9.386;2023-09-19T06:50:47;7.15;;;3.40;;
44222;SDS011;29895;48.804;9.386;2023-09-19T06:53:13;9.45;;;3.65;;
44222;SDS011;29895;48.804;9.386;2023-09-19T06:55:39;8.52;;;3.17;;
44222;SDS011;29895;48.804;9.386;2023-09-19T06:58:05;10.93;;;3.17;;
44222;SDS011;29895;48.804;9.386;2023-09-19T07:00:31;5.38;;;2.78;;
44222;SDS011;29895;48.804;9.386;2023-09-19T07:03:02;5.10;;;2.50;;
44222;SDS011;29895;48.804;9.386;2023-09-19T07:05:35;4.75;;;2.50;;
44222;SDS011;29895;48.804;9.386;2023-09-19T07:08:02;4.05;;;2.40;;
44222;SDS011;29895;48.804;9.386;2023-09-19T07:10:29;6.28;;;2.35;;
44222;SDS011;29895;48.804;9.386;2023-09-19T07:12:58;11.57;;;2.60;;
44222;SDS011;29895;48.804;9.386;2023-09-19T07:15:26;5.63;;;2.40;;
44222;SDS011;29895;48.804;9.386;2023-09-19T07:17:52;5.70;;;2.13;;
44222;SDS011;29895;48.804;9.386;2023-09-19T07:20:19;6.65;;;2.13;;
44222;SDS011;29895;48.804;9.386;2023-09-19T07:22:45;8.93;;;2.78;;
44222;SDS011;29895;48.804;9.386;2023-09-19T07:25:12;6.00;;;2.22;;
44222;SDS011;29895;48.804;9.386;2023-09-19T07:27:39;4.13;;;2.00;;
44222;SDS011;29895;48.804;9.386;2023-09-19T07:30:06;3.45;;;1.75;;
44222;SDS011;29895;48.804;9.386;2023-09-19T07:32:33;5.70;;;2.17;;
44222;SDS011;29895;48.804;9.386;2023-09-19T07:35:01;7.15;;;2.20;;
44222;SDS011;29895;48.804;9.386;2023-09-19T07:37:28;8.05;;;2.30;;
44222;SDS011;29895;48.804;9.386;2023-09-19T07:39:56;7.10;;;2.92;;
44222;SDS011;29895;48.804;9.386;2023-09-19T07:42:21;5.13;;;2.53;;
44222;SDS011;29895;48.804;9.386;2023-09-19T07:44:47;5.38;;;2.33;;
44222;SDS011;29895;48.804;9.386;2023-09-19T07:47:15;8.00;;;2.20;;
44222;SDS011;29895;48.804;9.386;2023-09-19T07:49:41;6.13;;;2.10;;
44222;SDS011;29895;48.804;9.386;2023-09-19T07:52:08;6.70;;;2.08;;
44222;SDS011;29895;48.804;9.386;2023-09-19T07:54:34;3.78;;;1.90;;
44222;SDS011;29895;48.804;9.386;2023-09-19T07:57:01;2.97;;;1.65;;
44222;SDS011;29895;48.804;9.386;2023-09-19T07:59:27;6.00;;;1.98;;
44222;SDS011;29895;48.804;9.386;2023-09-19T08:01:53;3.95;;;1.90;;
44222;SDS011;29895;48.804;9.386;2023-09-19T08:04:19;6.22;;;2.03;;
44222;SDS011;29895;48.804;9.386;2023-09-19T08:06:45;4.50;;;1.85;;
44222;SDS011;29895;48.804;9.386;2023-09-19T08:09:10;6.13;;;1.85;;
44222;SDS011;29895;48.804;9.386;2023-09-19T08:11:39;3.90;;;1.60;;
44222;SDS011;29895;48.804;9.386;2023-09-19T08:14:04;10.18;;;1.55;;
44222;SDS011;29895;48.804;9.386;2023-09-19T08:16:32;9.13;;;1.98;;
44222;SDS011;29895;48.804;9.386;2023-09-19T08:18:58;3.35;;;1.58;;
44222;SDS011;29895;48.804;9.386;2023-09-19T08:21:23;3.10;;;1.60;;
44222;SDS011;29895;48.804;9.386;2023-09-19T08:23:50;3.80;;;1.80;;
44222;SDS011;29895;48.804;9.386;2023-09-19T08:26:16;5.80;;;2.17;;
44222;SDS011;29895;48.804;9.386;2023-09-19T08:28:42;3.92;;;1.80;;
44222;SDS011;29895;48.804;9.386;2023-09-19T08:31:07;4.28;;;1.80;;
44222;SDS011;29895;48.804;9.386;2023-09-19T08:33:34;4.88;;;2.10;;
44222;SDS011;29895;48.804;9.386;2023-09-19T08:36:03;5.07;;;1.75;;
44222;SDS011;29895;48.804;9.386;2023-09-19T08:38:33;3.25;;;1.83;;
44222;SDS011;29895;48.804;9.386;2023-09-19T08:41:00;6.77;;;1.90;;
44222;SDS011;29895;48.804;9.386;2023-09-19T08:43:30;5.38;;;1.70;;
44222;SDS011;29895;48.804;9.386;2023-09-19T08:46:09;3.13;;;1.58;;
44222;SDS011;29895;48.804;9.386;2023-09-19T08:48:44;6.80;;;1.80;;
44222;SDS011;29895;48.804;9.386;2023-09-19T08:51:16;3.30;;;1.83;;
44222;SDS011;29895;48.804;9.386;2023-09-19T08:54:03;5.97;;;1.70;;
44222;SDS011;29895;48.804;9.386;2023-09-19T08:56:32;4.50;;;1.80;;
44222;SDS011;29895;48.804;9.386;2023-09-19T08:59:04;1.67;;;1.17;;
44222;SDS011;29895;48.804;9.386;2023-09-19T09:01:34;4.15;;;1.67;;
44222;SDS011;29895;48.804;9.386;2023-09-19T09:04:01;3.53;;;1.63;;
44222;SDS011;29895;48.804;9.386;2023-09-19T09:06:27;3.67;;;1.67;;
44222;SDS011;29895;48.804;9.386;2023-09-19T09:08:54;2.13;;;1.20;;
44222;SDS011;29895;48.804;9.386;2023-09-19T09:11:20;6.13;;;1.75;;
44222;SDS011;29895;48.804;9.386;2023-09-19T09:13:47;5.35;;;1.17;;
44222;SDS011;29895;48.804;9.386;2023-09-19T09:16:13;9.85;;;2.58;;
44222;SDS011;29895;48.804;9.386;2023-09-19T09:18:42;5.57;;;1.85;;
44222;SDS011;29895;48.804;9.386;2023-09-19T09:21:09;3.50;;;1.45;;
44222;SDS011;29895;48.804;9.386;2023-09-19T09:23:35;5.45;;;1.77;;
44222;SDS011;29895;48.804;9.386;2023-09-19T09:26:01;3.78;;;1.60;;
44222;SDS011;29895;48.804;9.386;2023-09-19T09:28:31;3.95;;;1.73;;
44222;SDS011;29895;48.804;9.386;2023-09-19T09:31:01;3.65;;;1.40;;
44222;SDS011;29895;48.804;9.386;2023-09-19T09:33:34;6.18;;;1.52;;
44222;SDS011;29895;48.804;9.386;2023-09-19T09:36:00;4.30;;;1.48;;
44222;SDS011;29895;48.804;9.386;2023-09-19T09:38:44;3.42;;;1.50;;
44222;SDS011;29895;48.804;9.386;2023-09-19T09:41:11;2.45;;;1.17;;
44222;SDS011;29895;48.804;9.386;2023-09-19T09:43:41;2.45;;;1.33;;
44222;SDS011;29895;48.804;9.386;2023-09-19T09:46:17;4.05;;;1.40;;
44222;SDS011;29895;48.804;9.386;2023-09-19T09:49:02;4.85;;;1.30;;
44222;SDS011;29895;48.804;9.386;2023-09-19T09:54:32;8.07;;;1.70;;
44222;SDS011;29895;48.804;9.386;2023-09-19T09:57:02;2.17;;;1.33;;
44222;SDS011;29895;48.804;9.386;2023-09-19T09:59:53;3.33;;;1.80;;
44222;SDS011;29895;48.804;9.386;2023-09-19T10:02:21;3.10;;;1.58;;
44222;SDS011;29895;48.804;9.386;2023-09-19T10:05:11;3.45;;;1.60;;
44222;SDS011;29895;48.804;9.386;2023-09-19T10:07:55;3.60;;;1.60;;
44222;SDS011;29895;48.804;9.386;2023-09-19T10:13:09;3.10;;;1.38;;
44222;SDS011;29895;48.804;9.386;2023-09-19T10:15:43;1.83;;;1.23;;
44222;SDS011;29895;48.804;9.386;2023-09-19T10:18:16;2.33;;;1.38;;
44222;SDS011;29895;48.804;9.386;2023-09-19T10:20:45;3.67;;;1.75;;
44222;SDS011;29895;48.804;9.386;2023-09-19T10:23:13;1.73;;;1.27;;
44222;SDS011;29895;48.804;9.386;2023-09-19T10:25:42;2.30;;;1.30;;
44222;SDS011;29895;48.804;9.386;2023-09-19T10:28:12;3.03;;;1.55;;
44222;SDS011;29895;48.804;9.386;2023-09-19T10:30:42;2.92;;;1.15;;
44222;SDS011;29895;48.804;9.386;2023-09-19T10:33:10;3.08;;;1.23;;
44222;SDS011;29895;48.804;9.386;2023-09-19T10:35:47;5.35;;;1.80;;
44222;SDS011;29895;48.804;9.386;2023-09-19T10:38:14;3.45;;;1.50;;
44222;SDS011;29895;48.804;9.386;2023-09-19T10:40:48;4.53;;;1.80;;
44222;SDS011;29895;48.804;9.386;2023-09-19T10:43:20;3.28;;;1.45;;
44222;SDS011;29895;48.804;9.386;2023-09-19T10:45:46;4.22;;;1.27;;
44222;SDS011;29895;48.804;9.386;2023-09-19T10:48:17;2.67;;;1.40;;
44222;SDS011;29895;48.804;9.386;2023-09-19T10:53:20;3.17;;;1.23;;
44222;SDS011;29895;48.804;9.386;2023-09-19T10:55:51;4.18;;;1.65;;
44222;SDS011;29895;48.804;9.386;2023-09-19T10:58:31;2.90;;;1.58;;
44222;SDS011;29895;48.804;9.386;2023-09-19T11:01:03;4.10;;;1.45;;
44222;SDS011;29895;48.804;9.386;2023-09-19T11:03:40;3.95;;;1.20;;
44222;SDS011;29895;48.804;9.386;2023-09-19T11:17:29;7.53;;;1.95;;
44222;SDS011;29895;48.804;9.386;2023-09-19T11:30:35;2.83;;;1.20;;
44222;SDS011;29895;48.804;9.386;2023-09-19T11:33:15;3.60;;;1.30;;
44222;SDS011;29895;48.804;9.386;2023-09-19T11:43:52;3.83;;;1.00;;
44222;SDS011;29895;48.804;9.386;2023-09-19T11:49:26;3.72;;;1.42;;
44222;SDS011;29895;48.804;9.386;2023-09-19T11:51:57;1.75;;;1.00;;
44222;SDS011;29895;48.804;9.386;2023-09-19T11:54:29;4.60;;;1.50;;
44222;SDS011;29895;48.804;9.386;2023-09-19T11:56:59;3.63;;;1.33;;
44222;SDS011;29895;48.804;9.386;2023-09-19T11:59:26;2.38;;;1.30;;
44222;SDS011;29895;48.804;9.386;2023-09-19T12:01:55;2.00;;;1.10;;
44222;SDS011;29895;48.804;9.386;2023-09-19T12:04:40;3.70;;;1.10;;
44222;SDS011;29895;48.804;9.386;2023-09-19T12:07:09;3.65;;;0.90;;
44222;SDS011;29895;48.804;9.386;2023-09-19T12:09:40;2.42;;;1.15;;
44222;SDS011;29895;48.804;9.386;2023-09-19T12:12:26;3.67;;;1.65;;
44222;SDS011;29895;48.804;9.386;2023-09-19T12:14:54;2.90;;;0.98;;
44222;SDS011;29895;48.804;9.386;2023-09-19T12:17:22;3.33;;;1.58;;
44222;SDS011;29895;48.804;9.386;2023-09-19T12:19:52;4.45;;;1.20;;
44222;SDS011;29895;48.804;9.386;2023-09-19T12:22:18;2.53;;;1.05;;
44222;SDS011;29895;48.804;9.386;2023-09-19T12:24:45;4.47;;;1.15;;
44222;SDS011;29895;48.804;9.386;2023-09-19T12:27:12;2.67;;;1.25;;
44222;SDS011;29895;48.804;9.386;2023-09-19T12:29:44;3.45;;;1.20;;
44222;SDS011;29895;48.804;9.386;2023-09-19T12:32:13;7.90;;;1.55;;
44222;SDS011;29895;48.804;9.386;2023-09-19T12:34:41;2.53;;;1.40;;
44222;SDS011;29895;48.804;9.386;2023-09-19T12:40:03;3.25;;;1.40;;
44222;SDS011;29895;48.804;9.386;2023-09-19T12:42:42;2.88;;;1.15;;
44222;SDS011;29895;48.804;9.386;2023-09-19T12:45:11;2.70;;;1.05;;
44222;SDS011;29895;48.804;9.386;2023-09-19T12:47:40;6.28;;;1.27;;
44222;SDS011;29895;48.804;9.386;2023-09-19T12:50:26;3.90;;;1.20;;
44222;SDS011;29895;48.804;9.386;2023-09-19T12:52:55;2.10;;;1.10;;
44222;SDS011;29895;48.804;9.386;2023-09-19T12:55:25;1.70;;;1.08;;
44222;SDS011;29895;48.804;9.386;2023-09-19T13:00:21;3.85;;;1.50;;
44222;SDS011;29895;48.804;9.386;2023-09-19T13:05:54;4.97;;;1.60;;
44222;SDS011;29895;48.804;9.386;2023-09-19T13:16:14;3.72;;;1.25;;
44222;SDS011;29895;48.804;9.386;2023-09-19T13:18:45;6.93;;;1.70;;
44222;SDS011;29895;48.804;9.386;2023-09-19T13:21:13;6.50;;;1.60;;
44222;SDS011;29895;48.804;9.386;2023-09-19T13:23:55;3.65;;;1.48;;
44222;SDS011;29895;48.804;9.386;2023-09-19T13:26:41;2.60;;;1.10;;
44222;SDS011;29895;48.804;9.386;2023-09-19T13:29:06;3.17;;;1.40;;
44222;SDS011;29895;48.804;9.386;2023-09-19T13:31:32;3.63;;;1.25;;
44222;SDS011;29895;48.804;9.386;2023-09-19T13:33:57;3.22;;;1.52;;
44222;SDS011;29895;48.804;9.386;2023-09-19T13:36:23;4.32;;;1.35;;
44222;SDS011;29895;48.804;9.386;2023-09-19T13:38:49;3.17;;;1.55;;
44222;SDS011;29895;48.804;9.386;2023-09-19T13:41:14;2.70;;;1.25;;
44222;SDS011;29895;48.804;9.386;2023-09-19T13:43:40;15.32;;;2.13;;
44222;SDS011;29895;48.804;9.386;2023-09-19T13:46:05;5.05;;;1.58;;
44222;SDS011;29895;48.804;9.386;2023-09-19T13:48:40;2.33;;;1.30;;
44222;SDS011;29895;48.804;9.386;2023-09-19T13:51:05;2.47;;;1.15;;
44222;SDS011;29895;48.804;9.386;2023-09-19T13:53:31;2.50;;;1.27;;
44222;SDS011;29895;48.804;9.386;2023-09-19T13:55:57;3.47;;;1.30;;
44222;SDS011;29895;48.804;9.386;2023-09-19T13:58:22;3.60;;;1.50;;
44222;SDS011;29895;48.804;9.386;2023-09-19T14:00:49;2.60;;;1.48;;
44222;SDS011;29895;48.804;9.386;2023-09-19T14:03:14;2.17;;;1.42;;
44222;SDS011;29895;48.804;9.386;2023-09-19T14:05:40;2.78;;;1.23;;
44222;SDS011;29895;48.804;9.386;2023-09-19T14:08:07;2.53;;;1.30;;
44222;SDS011;29895;48.804;9.386;2023-09-19T14:10:33;3.35;;;1.20;;
44222;SDS011;29895;48.804;9.386;2023-09-19T14:13:00;3.33;;;1.23;;
44222;SDS011;29895;48.804;9.386;2023-09-19T14:15:26;3.22;;;1.70;;
44222;SDS011;29895;48.804;9.386;2023-09-19T14:17:56;3.05;;;1.40;;
44222;SDS011;29895;48.804;9.386;2023-09-19T14:20:22;3.58;;;1.27;;
44222;SDS011;29895;48.804;9.386;2023-09-19T14:22:48;6.65;;;1.90;;
44222;SDS011;29895;48.804;9.386;2023-09-19T14:25:14;2.05;;;1.38;;
44222;SDS011;29895;48.804;9.386;2023-09-19T14:27:39;2.53;;;1.17;;
44222;SDS011;29895;48.804;9.386;2023-09-19T14:30:06;2.17;;;1.52;;
44222;SDS011;29895;48.804;9.386;2023-09-19T14:32:34;2.90;;;1.23;;
44222;SDS011;29895;48.804;9.386;2023-09-19T14:35:01;4.00;;;1.38;;
44222;SDS011;29895;48.804;9.386;2023-09-19T14:37:27;3.20;;;1.10;;
44222;SDS011;29895;48.804;9.386;2023-09-19T14:39:53;3.25;;;1.77;;
44222;SDS011;29895;48.804;9.386;2023-09-19T14:42:19;3.10;;;1.55;;
44222;SDS011;29895;48.804;9.386;2023-09-19T14:44:44;3.08;;;1.67;;
44222;SDS011;29895;48.804;9.386;2023-09-19T14:47:12;3.88;;;1.40;;
44222;SDS011;29895;48.804;9.386;2023-09-19T14:49:38;2.03;;;1.60;;
44222;SDS011;29895;48.804;9.386;2023-09-19T14:52:06;3.35;;;1.25;;
44222;SDS011;29895;48.804;9.386;2023-09-19T14:54:33;3.33;;;1.30;;
44222;SDS011;29895;48.804;9.386;2023-09-19T14:56:59;4.10;;;1.70;;
44222;SDS011;29895;48.804;9.386;2023-09-19T14:59:33;3.17;;;1.50;;
44222;SDS011;29895;48.804;9.386;2023-09-19T15:02:06;4.00;;;1.60;;
44222;SDS011;29895;48.804;9.386;2023-09-19T15:04:32;3.25;;;1.17;;
44222;SDS011;29895;48.804;9.386;2023-09-19T15:06:58;3.47;;;1.40;;
44222;SDS011;29895;48.804;9.386;2023-09-19T15:09:25;2.22;;;1.42;;
44222;SDS011;29895;48.804;9.386;2023-09-19T15:11:54;3.30;;;1.48;;
44222;SDS011;29895;48.804;9.386;2023-09-19T15:14:23;3.33;;;1.35;;
44222;SDS011;29895;48.804;9.386;2023-09-19T15:16:50;3.00;;;1.80;;
44222;SDS011;29895;48.804;9.386;2023-09-19T15:19:15;4.18;;;1.77;;
44222;SDS011;29895;48.804;9.386;2023-09-19T15:21:42;2.70;;;1.30;;
44222;SDS011;29895;48.804;9.386;2023-09-19T15:24:08;3.20;;;1.42;;
44222;SDS011;29895;48.804;9.386;2023-09-19T15:26:37;2.13;;;1.30;;
44222;SDS011;29895;48.804;9.386;2023-09-19T15:29:06;2.13;;;1.20;;
44222;SDS011;29895;48.804;9.386;2023-09-19T15:31:32;2.25;;;1.60;;
44222;SDS011;29895;48.804;9.386;2023-09-19T15:33:58;4.28;;;1.58;;
44222;SDS011;29895;48.804;9.386;2023-09-19T15:36:24;2.80;;;1.25;;
44222;SDS011;29895;48.804;9.386;2023-09-19T15:41:23;3.47;;;1.50;;
44222;SDS011;29895;48.804;9.386;2023-09-19T15:43:49;5.70;;;1.75;;
44222;SDS011;29895;48.804;9.386;2023-09-19T15:46:15;4.05;;;1.70;;
44222;SDS011;29895;48.804;9.386;2023-09-19T15:48:41;3.85;;;1.40;;
44222;SDS011;29895;48.804;9.386;2023-09-19T15:51:07;2.83;;;1.30;;
44222;SDS011;29895;48.804;9.386;2023-09-19T15:53:41;2.25;;;1.35;;
44222;SDS011;29895;48.804;9.386;2023-09-19T15:56:09;2.03;;;1.38;;
44222;SDS011;29895;48.804;9.386;2023-09-19T15:58:35;5.53;;;1.50;;
44222;SDS011;29895;48.804;9.386;2023-09-19T16:01:07;3.17;;;1.67;;
44222;SDS011;29895;48.804;9.386;2023-09-19T16:03:34;3.38;;;1.73;;
44222;SDS011;29895;48.804;9.386;2023-09-19T16:06:13;2.33;;;1.40;;
44222;SDS011;29895;48.804;9.386;2023-09-19T16:08:43;3.70;;;1.27;;
44222;SDS011;29895;48.804;9.386;2023-09-19T16:11:11;4.65;;;1.80;;
44222;SDS011;29895;48.804;9.386;2023-09-19T16:13:38;2.90;;;1.30;;